createdAt,value
2022-11-28T00:01:22.853Z,8.12
2022-11-28T00:03:49.615Z,8.09
2022-11-28T00:06:16.659Z,8.11
2022-11-28T00:08:43.904Z,8.12
2022-11-28T00:11:13.912Z,8.16
2022-11-28T00:13:40.834Z,8.17
2022-11-28T00:16:09.303Z,8.15
2022-11-28T00:18:36.107Z,8.15
2022-11-28T00:21:05.966Z,8.14
2022-11-28T00:23:33.249Z,8.14
2022-11-28T00:26:02.850Z,8.17
2022-11-28T00:28:29.437Z,8.16
2022-11-28T00:30:56.015Z,8.17
2022-11-28T00:33:22.989Z,8.18
2022-11-28T00:35:49.664Z,8.16
2022-11-28T00:38:16.524Z,8.17
2022-11-28T00:40:43.091Z,8.16
2022-11-28T00:43:11.630Z,8.16
2022-11-28T00:45:38.190Z,8.14
2022-11-28T00:48:05.259Z,8.13
2022-11-28T00:50:31.763Z,8.15
2022-11-28T00:53:00.596Z,8.10
2022-11-28T00:55:27.462Z,8.08
2022-11-28T00:57:55.741Z,8.02
2022-11-28T01:00:23.922Z,8.00
2022-11-28T01:02:50.824Z,7.99
2022-11-28T01:05:17.576Z,7.95
2022-11-28T01:07:44.127Z,7.94
2022-11-28T01:10:11.825Z,7.92
2022-11-28T01:12:38.740Z,7.86
2022-11-28T01:15:08.317Z,7.85
2022-11-28T01:17:35.716Z,7.81
2022-11-28T01:20:08.112Z,7.78
2022-11-28T01:22:34.698Z,7.77
2022-11-28T01:25:01.217Z,7.76
2022-11-28T01:27:27.721Z,7.75
2022-11-28T01:29:54.249Z,7.74
2022-11-28T01:32:20.746Z,7.71
2022-11-28T01:34:47.347Z,7.72
2022-11-28T01:37:13.865Z,7.73
2022-11-28T01:39:40.561Z,7.71
2022-11-28T01:42:07.114Z,7.71
2022-11-28T01:44:33.545Z,7.70
2022-11-28T01:47:00.171Z,7.69
2022-11-28T01:49:31.617Z,7.66
2022-11-28T01:52:05.680Z,7.64
2022-11-28T01:54:35.126Z,7.59
2022-11-28T01:57:04.768Z,7.61
2022-11-28T01:59:37.107Z,7.60
2022-11-28T02:02:09.754Z,7.57
2022-11-28T02:04:37.447Z,7.58
2022-11-28T02:07:04.157Z,7.59
2022-11-28T02:09:30.724Z,7.58
2022-11-28T02:12:26.307Z,7.59
2022-11-28T02:14:58.891Z,7.59
2022-11-28T02:18:18.589Z,7.57
2022-11-28T02:21:14.155Z,7.57
2022-11-28T02:24:05.572Z,7.57
2022-11-28T02:26:34.938Z,7.55
2022-11-28T02:29:25.730Z,7.57
2022-11-28T02:32:25.077Z,7.56
2022-11-28T02:35:03.667Z,7.55
2022-11-28T02:37:41.667Z,7.54
2022-11-28T02:40:23.138Z,7.55
2022-11-28T02:43:20.476Z,7.53
2022-11-28T02:46:22.893Z,7.55
2022-11-28T02:48:55.545Z,7.55
2022-11-28T02:51:33.423Z,7.54
2022-11-28T02:54:03.694Z,7.57
2022-11-28T02:56:30.480Z,7.55
2022-11-28T02:58:57.153Z,7.55
2022-11-28T03:01:31.433Z,7.56
2022-11-28T03:04:12.488Z,7.57
2022-11-28T03:07:04.941Z,7.57
2022-11-28T03:10:12.704Z,7.58
2022-11-28T03:13:09.736Z,7.56
2022-11-28T03:15:50.346Z,7.56
2022-11-28T03:18:34.456Z,7.55
2022-11-28T03:21:12.844Z,7.56
2022-11-28T03:23:52.187Z,7.56
2022-11-28T03:26:37.094Z,7.56
2022-11-28T03:29:13.584Z,7.56
2022-11-28T03:31:45.139Z,7.53
2022-11-28T03:34:17.537Z,7.54
2022-11-28T03:36:55.147Z,7.55
2022-11-28T03:39:29.208Z,7.56
2022-11-28T03:42:08.918Z,7.54
2022-11-28T03:44:45.639Z,7.58
2022-11-28T03:47:12.522Z,7.58
2022-11-28T03:49:48.659Z,7.58
2022-11-28T03:52:22.178Z,7.62
2022-11-28T03:54:55.549Z,7.62
2022-11-28T03:57:34.423Z,7.62
2022-11-28T04:00:12.973Z,7.64
2022-11-28T04:02:45.308Z,7.68
2022-11-28T04:05:41.380Z,7.69
2022-11-28T04:08:29.730Z,7.68
2022-11-28T04:11:07.343Z,7.71
2022-11-28T04:13:45.825Z,7.73
2022-11-28T04:16:34.172Z,7.73
2022-11-28T04:19:18.886Z,7.73
2022-11-28T04:21:55.402Z,7.73
2022-11-28T04:24:28.533Z,7.73
2022-11-28T04:27:00.527Z,7.75
2022-11-28T04:29:31.973Z,7.75
2022-11-28T04:32:01.231Z,7.73
2022-11-28T04:34:30.776Z,7.79
2022-11-28T04:36:59.430Z,7.80
2022-11-28T04:39:27.574Z,7.81
2022-11-28T04:41:56.517Z,7.83
2022-11-28T04:44:40.108Z,7.82
2022-11-28T04:47:07.579Z,7.81
2022-11-28T04:49:34.225Z,7.83
2022-11-28T04:52:29.582Z,7.86
2022-11-28T04:55:02.238Z,7.87
2022-11-28T04:57:32.805Z,7.87
2022-11-28T05:00:02.769Z,7.84
2022-11-28T05:02:30.195Z,7.89
2022-11-28T05:04:56.840Z,7.89
2022-11-28T05:07:24.901Z,7.90
2022-11-28T05:09:51.766Z,7.91
2022-11-28T05:12:18.511Z,7.88
2022-11-28T05:14:45.126Z,7.92
2022-11-28T05:17:13.620Z,7.92
2022-11-28T05:19:40.209Z,7.97
2022-11-28T05:22:06.826Z,7.98
2022-11-28T05:24:33.319Z,7.98
2022-11-28T05:26:59.859Z,8.01
2022-11-28T05:29:26.387Z,8.03
2022-11-28T05:31:52.988Z,8.01
2022-11-28T05:34:19.638Z,8.07
2022-11-28T05:36:46.168Z,8.05
2022-11-28T05:39:12.700Z,8.10
2022-11-28T05:41:39.247Z,8.11
2022-11-28T05:44:05.867Z,8.11
2022-11-28T05:46:32.423Z,8.13
2022-11-28T05:48:59.305Z,8.14
2022-11-28T05:51:25.811Z,8.17
2022-11-28T05:53:52.331Z,8.19
2022-11-28T05:56:22.931Z,8.17
2022-11-28T05:58:49.744Z,8.17
2022-11-28T06:01:25.582Z,8.16
2022-11-28T06:03:58.310Z,8.15
2022-11-28T06:06:26.451Z,8.16
2022-11-28T06:08:53.112Z,8.16
2022-11-28T06:11:22.241Z,8.18
2022-11-28T06:13:50.128Z,8.16
2022-11-28T06:16:19.426Z,8.17
2022-11-28T06:18:46.371Z,8.14
2022-11-28T06:21:14.723Z,8.15
2022-11-28T06:23:41.561Z,8.19
2022-11-28T06:26:10.837Z,8.19
2022-11-28T06:28:37.383Z,8.17
2022-11-28T06:31:04.103Z,8.19
2022-11-28T06:33:30.653Z,8.21
2022-11-28T06:36:04.152Z,8.24
2022-11-28T06:38:31.553Z,8.26
2022-11-28T06:40:59.356Z,8.22
2022-11-28T06:43:26.038Z,8.23
2022-11-28T06:45:52.615Z,8.23
2022-11-28T06:48:20.069Z,8.24
2022-11-28T06:50:47.564Z,8.24
2022-11-28T06:53:14.626Z,8.20
2022-11-28T06:55:41.457Z,8.22
2022-11-28T06:58:08.021Z,8.23
2022-11-28T07:00:35.505Z,8.24
2022-11-28T07:03:02.263Z,8.25
2022-11-28T07:05:28.826Z,8.25
2022-11-28T07:07:55.363Z,8.29
2022-11-28T07:10:23.199Z,8.31
2022-11-28T07:12:59.368Z,8.34
2022-11-28T07:15:29.087Z,8.36
2022-11-28T07:17:55.657Z,8.38
2022-11-28T07:20:22.194Z,8.39
2022-11-28T07:22:48.868Z,8.41
2022-11-28T07:25:16.069Z,8.42
2022-11-28T07:27:42.920Z,8.41
2022-11-28T07:30:10.451Z,8.44
2022-11-28T07:32:40.723Z,8.44
2022-11-28T07:35:09.095Z,8.44
2022-11-28T07:37:36.291Z,8.44
2022-11-28T07:40:04.629Z,8.45
2022-11-28T07:42:31.185Z,8.47
2022-11-28T07:44:57.770Z,8.46
2022-11-28T07:47:24.677Z,8.47
2022-11-28T07:49:51.203Z,8.47
2022-11-28T07:52:17.714Z,8.50
2022-11-28T07:54:44.299Z,8.50
2022-11-28T07:57:12.706Z,8.53
2022-11-28T07:59:40.020Z,8.54
2022-11-28T08:02:07.305Z,8.56
2022-11-28T08:04:34.030Z,8.60
2022-11-28T08:07:00.914Z,8.61
2022-11-28T08:09:27.731Z,8.64
2022-11-28T08:11:54.330Z,8.66
2022-11-28T08:14:20.899Z,8.71
2022-11-28T08:16:47.546Z,8.71
2022-11-28T08:19:14.201Z,8.76
2022-11-28T08:21:40.797Z,8.77
2022-11-28T08:24:08.237Z,8.85
2022-11-28T08:26:35.609Z,8.90
2022-11-28T08:29:03.665Z,8.91
2022-11-28T08:31:36.577Z,8.94
2022-11-28T08:34:06.555Z,9.08
2022-11-28T08:36:33.655Z,9.11
2022-11-28T08:41:47.865Z,9.33
2022-11-28T08:44:14.386Z,9.36
2022-11-28T08:46:41.111Z,9.43
2022-11-28T08:49:07.849Z,9.50
2022-11-28T08:51:34.624Z,9.54
2022-11-28T08:54:01.215Z,9.43
2022-11-28T08:56:28.411Z,9.35
2022-11-28T08:58:55.611Z,9.20
2022-11-28T09:01:26.791Z,9.18
2022-11-28T09:03:55.467Z,9.07
2022-11-28T09:06:23.129Z,9.05
2022-11-28T09:08:50.803Z,8.98
2022-11-28T09:11:20.062Z,8.96
2022-11-28T09:13:46.911Z,8.96
2022-11-28T09:16:14.385Z,8.96
2022-11-28T09:18:41.082Z,8.96
2022-11-28T09:21:10.757Z,8.94
2022-11-28T09:23:39.083Z,8.94
2022-11-28T09:26:17.813Z,8.95
2022-11-28T09:28:45.002Z,8.98
2022-11-28T09:31:12.620Z,8.97
2022-11-28T09:33:39.275Z,8.96
2022-11-28T09:36:19.761Z,8.99
2022-11-28T09:38:46.697Z,8.97
2022-11-28T09:41:29.148Z,8.97
2022-11-28T09:44:20.944Z,8.97
2022-11-28T09:46:49.879Z,8.95
2022-11-28T09:49:24.142Z,8.95
2022-11-28T09:52:01.919Z,8.92
2022-11-28T09:54:44.685Z,8.94
2022-11-28T09:57:18.304Z,8.91
2022-11-28T09:59:46.320Z,8.90
2022-11-28T10:02:20.926Z,8.88
2022-11-28T10:05:01.665Z,8.86
2022-11-28T10:07:54.913Z,8.87
2022-11-28T10:10:21.947Z,8.83
2022-11-28T10:13:11.663Z,8.77
2022-11-28T10:15:41.066Z,8.73
2022-11-28T10:18:22.712Z,8.70
2022-11-28T10:20:55.075Z,8.66
2022-11-28T10:23:44.324Z,8.66
2022-11-28T10:26:26.184Z,8.60
2022-11-28T10:28:55.606Z,8.64
2022-11-28T10:31:42.859Z,8.65
2022-11-28T10:34:18.463Z,8.63
2022-11-28T10:36:57.348Z,8.72
2022-11-28T10:39:25.800Z,8.76
2022-11-28T10:42:14.189Z,8.83
2022-11-28T10:44:43.362Z,8.95
2022-11-28T10:47:32.910Z,9.02
2022-11-28T10:50:21.925Z,9.13
2022-11-28T10:53:16.809Z,9.25
2022-11-28T10:56:11.674Z,9.30
2022-11-28T10:59:09.791Z,9.37
2022-11-28T11:01:39.266Z,9.41
2022-11-28T11:04:06.389Z,9.45
2022-11-28T11:06:41.821Z,9.49
2022-11-28T11:09:14.744Z,9.56
2022-11-28T11:11:53.071Z,9.71
2022-11-28T11:14:34.934Z,10.12
2022-11-28T11:17:01.779Z,10.37
2022-11-28T11:19:36.743Z,10.41
2022-11-28T11:22:26.989Z,10.26
2022-11-28T11:25:20.473Z,10.48
2022-11-28T11:28:03.379Z,10.88
2022-11-28T11:30:31.323Z,10.94
2022-11-28T11:33:00.551Z,10.83
2022-11-28T11:35:35.895Z,10.72
2022-11-28T11:38:20.762Z,10.75
2022-11-28T11:40:51.361Z,10.58
2022-11-28T11:43:26.861Z,10.26
2022-11-28T11:46:16.294Z,10.10
2022-11-28T11:48:48.183Z,9.99
2022-11-28T11:51:32.653Z,9.85
2022-11-28T11:54:17.005Z,9.77
2022-11-28T11:56:47.315Z,9.70
2022-11-28T11:59:26.724Z,9.68
2022-11-28T12:01:59.279Z,9.66
2022-11-28T12:04:46.485Z,9.70
2022-11-28T12:07:26.412Z,9.87
2022-11-28T12:09:55.685Z,9.95
2022-11-28T12:12:29.279Z,10.02
2022-11-28T12:14:56.372Z,10.00
2022-11-28T12:17:48.895Z,10.00
2022-11-28T12:20:37.481Z,10.05
2022-11-28T12:23:27.502Z,9.99
2022-11-28T12:26:11.366Z,9.96
2022-11-28T12:28:47.552Z,9.90
2022-11-28T12:31:39.349Z,9.88
2022-11-28T12:34:33.013Z,9.85
2022-11-28T12:37:42.113Z,9.82
2022-11-28T12:40:38.254Z,9.80
2022-11-28T12:43:38.985Z,9.74
2022-11-28T12:46:23.960Z,9.74
2022-11-28T12:49:17.549Z,9.74
2022-11-28T12:52:14.305Z,9.74
2022-11-28T12:54:57.399Z,9.78
2022-11-28T12:57:30.637Z,9.80
2022-11-28T13:00:09.283Z,9.87
2022-11-28T13:03:10.989Z,9.88
2022-11-28T13:06:19.103Z,9.78
2022-11-28T13:09:03.412Z,9.81
2022-11-28T13:11:49.726Z,9.86
2022-11-28T13:14:36.360Z,9.78
2022-11-28T13:17:25.879Z,9.73
2022-11-28T13:20:00.546Z,9.69
2022-11-28T13:23:00.350Z,9.66
2022-11-28T13:25:33.092Z,9.60
2022-11-28T13:28:08.449Z,9.59
2022-11-28T13:30:45.799Z,9.65
2022-11-28T13:33:40.420Z,9.70
2022-11-28T13:38:34.969Z,9.74
2022-11-28T13:39:18.960Z,9.76
2022-11-28T13:45:17.146Z,9.65
2022-11-28T13:47:43.689Z,9.58
2022-11-28T13:50:25.349Z,9.61
2022-11-28T13:52:59.454Z,9.60
2022-11-28T13:55:46.741Z,9.58
2022-11-28T13:58:35.119Z,9.63
2022-11-28T14:01:17.829Z,9.58
2022-11-28T14:03:49.247Z,9.55
2022-11-28T14:06:22.909Z,9.52
2022-11-28T14:09:00.786Z,9.54
2022-11-28T14:12:07.762Z,9.50
2022-11-28T14:14:52.769Z,9.55
2022-11-28T14:17:40.247Z,9.55
2022-11-28T14:20:24.515Z,9.54
2022-11-28T14:22:57.019Z,9.50
2022-11-28T14:25:31.677Z,9.43
2022-11-28T14:28:14.782Z,9.45
2022-11-28T14:30:44.862Z,9.42
2022-11-28T14:33:23.464Z,9.45
2022-11-28T14:35:50.063Z,9.44
2022-11-28T14:38:32.182Z,9.47
2022-11-28T14:41:03.243Z,9.46
2022-11-28T14:43:31.105Z,9.42
2022-11-28T14:46:22.908Z,9.36
2022-11-28T14:48:58.871Z,9.34
2022-11-28T14:51:44.058Z,9.32
2022-11-28T14:54:43.815Z,9.30
2022-11-28T14:57:17.719Z,9.26
2022-11-28T14:59:44.787Z,9.21
2022-11-28T15:02:11.265Z,9.15
2022-11-28T15:04:49.396Z,9.09
2022-11-28T15:07:27.298Z,9.05
2022-11-28T15:10:07.512Z,9.03
2022-11-28T15:13:03.792Z,9.01
2022-11-28T15:15:31.980Z,8.96
2022-11-28T15:18:02.379Z,8.86
2022-11-28T15:20:35.463Z,8.79
2022-11-28T15:23:02.243Z,8.77
2022-11-28T15:25:35.660Z,8.73
2022-11-28T15:28:16.205Z,8.71
2022-11-28T15:30:48.824Z,8.64
2022-11-28T15:33:15.663Z,8.59
2022-11-28T15:35:56.951Z,8.57
2022-11-28T15:38:24.142Z,8.50
2022-11-28T15:40:52.839Z,8.42
2022-11-28T15:43:20.067Z,8.28
2022-11-28T15:45:58.507Z,8.23
2022-11-28T15:48:27.627Z,8.12
2022-11-28T15:50:54.625Z,8.05
2022-11-28T15:53:21.822Z,8.04
2022-11-28T15:56:07.216Z,7.94
2022-11-28T15:58:33.909Z,7.79
2022-11-28T16:01:04.896Z,7.68
2022-11-28T16:03:41.429Z,7.54
2022-11-28T16:06:08.486Z,7.42
2022-11-28T16:08:40.271Z,7.28
2022-11-28T16:11:10.024Z,7.15
2022-11-28T16:13:39.773Z,7.13
2022-11-28T16:16:12.922Z,7.18
2022-11-28T16:18:45.606Z,7.34
2022-11-28T16:21:14.001Z,7.30
2022-11-28T16:23:41.443Z,7.40
2022-11-28T16:26:22.031Z,7.45
2022-11-28T16:29:07.064Z,7.55
2022-11-28T16:31:34.805Z,7.58
2022-11-28T16:34:02.838Z,7.61
2022-11-28T16:36:37.431Z,7.67
2022-11-28T16:39:09.642Z,7.70
2022-11-28T16:41:37.781Z,7.77
2022-11-28T16:44:07.562Z,7.83
2022-11-28T16:46:39.969Z,7.83
2022-11-28T16:49:24.920Z,7.81
2022-11-28T16:52:13.575Z,7.71
2022-11-28T16:54:40.103Z,7.63
2022-11-28T16:57:16.780Z,7.56
2022-11-28T16:59:45.202Z,7.51
2022-11-28T17:02:17.746Z,7.51
2022-11-28T17:04:45.404Z,7.50
2022-11-28T17:07:14.665Z,7.55
2022-11-28T17:09:42.146Z,7.57
2022-11-28T17:12:22.718Z,7.64
2022-11-28T17:14:49.300Z,7.68
2022-11-28T17:17:18.108Z,7.70
2022-11-28T17:19:45.660Z,7.67
2022-11-28T17:22:15.803Z,7.64
2022-11-28T17:24:42.889Z,7.61
2022-11-28T17:27:12.624Z,7.61
2022-11-28T17:29:39.333Z,7.62
2022-11-28T17:32:06.151Z,7.66
2022-11-28T17:34:34.660Z,7.70
2022-11-28T17:37:02.067Z,7.70
2022-11-28T17:39:29.806Z,7.71
2022-11-28T17:41:57.470Z,7.71
2022-11-28T17:44:32.177Z,7.70
2022-11-28T17:47:00.634Z,7.69
2022-11-28T17:49:27.969Z,7.65
2022-11-28T17:51:55.980Z,7.64
2022-11-28T17:54:24.267Z,7.58
2022-11-28T17:56:52.007Z,7.51
2022-11-28T17:59:21.310Z,7.46
2022-11-28T18:01:48.221Z,7.42
2022-11-28T18:04:14.845Z,7.42
2022-11-28T18:06:47.859Z,7.44
2022-11-28T18:09:14.668Z,7.47
2022-11-28T18:11:42.304Z,7.58
2022-11-28T18:14:09.233Z,7.57
2022-11-28T18:16:36.263Z,7.55
2022-11-28T18:19:04.048Z,7.55
2022-11-28T18:21:30.940Z,7.53
2022-11-28T18:23:57.551Z,7.58
2022-11-28T18:26:26.172Z,7.57
2022-11-28T18:28:53.753Z,7.57
2022-11-28T18:31:25.417Z,7.53
2022-11-28T18:33:57.400Z,7.54
2022-11-28T18:36:28.567Z,7.51
2022-11-28T18:38:56.549Z,7.52
2022-11-28T18:41:23.590Z,7.58
2022-11-28T18:43:54.862Z,7.62
2022-11-28T18:46:21.494Z,7.54
2022-11-28T18:48:48.309Z,7.43
2022-11-28T18:51:24.954Z,7.28
2022-11-28T18:53:53.939Z,7.17
2022-11-28T18:56:21.174Z,7.03
2022-11-28T18:58:51.820Z,6.96
2022-11-28T19:01:28.686Z,7.03
2022-11-28T19:04:01.128Z,7.19
2022-11-28T19:06:28.065Z,7.31
2022-11-28T19:08:57.352Z,7.38
2022-11-28T19:11:24.399Z,7.43
2022-11-28T19:13:53.356Z,7.47
2022-11-28T19:16:25.608Z,7.47
2022-11-28T19:18:52.462Z,7.58
2022-11-28T19:21:21.899Z,7.70
2022-11-28T19:23:49.272Z,7.77
2022-11-28T19:26:21.999Z,7.82
2022-11-28T19:28:49.617Z,7.83
2022-11-28T19:31:27.125Z,7.83
2022-11-28T19:34:01.503Z,7.80
2022-11-28T19:36:30.402Z,7.75
2022-11-28T19:38:57.916Z,7.64
2022-11-28T19:41:27.570Z,7.58
2022-11-28T19:43:54.328Z,7.53
2022-11-28T19:46:20.902Z,7.59
2022-11-28T19:48:47.739Z,7.59
2022-11-28T19:51:14.330Z,7.60
2022-11-28T19:53:42.728Z,7.68
2022-11-28T19:56:14.939Z,7.66
2022-11-28T19:58:41.896Z,7.67
2022-11-28T20:01:14.342Z,7.75
2022-11-28T20:03:41.881Z,7.83
2022-11-28T20:06:16.327Z,7.89
2022-11-28T20:08:43.382Z,7.92
2022-11-28T20:11:14.721Z,7.90
2022-11-28T20:13:42.054Z,7.86
2022-11-28T20:16:11.221Z,7.86
2022-11-28T20:18:39.336Z,7.80
2022-11-28T20:21:17.720Z,7.73
2022-11-28T20:23:48.951Z,7.75
2022-11-28T20:26:17.673Z,7.72
2022-11-28T20:28:45.472Z,7.71
2022-11-28T20:31:20.763Z,7.71
2022-11-28T20:33:49.103Z,7.70
2022-11-28T20:36:18.431Z,7.73
2022-11-28T20:38:45.697Z,7.75
2022-11-28T20:41:14.123Z,7.76
2022-11-28T20:43:41.454Z,7.76
2022-11-28T20:46:14.810Z,7.71
2022-11-28T20:48:42.163Z,7.68
2022-11-28T20:51:10.611Z,7.65
2022-11-28T20:53:39.435Z,7.58
2022-11-28T20:56:08.568Z,7.54
2022-11-28T20:58:35.152Z,7.57
2022-11-28T21:01:01.869Z,7.58
2022-11-28T21:03:28.666Z,7.60
2022-11-28T21:06:00.651Z,7.62
2022-11-28T21:08:30.477Z,7.62
2022-11-28T21:10:57.460Z,7.59
2022-11-28T21:13:24.191Z,7.56
2022-11-28T21:15:52.017Z,7.54
2022-11-28T21:18:18.545Z,7.47
2022-11-28T21:20:46.585Z,7.40
2022-11-28T21:23:15.910Z,7.25
2022-11-28T21:25:43.612Z,7.07
2022-11-28T21:28:11.103Z,6.99
2022-11-28T21:30:44.066Z,6.95
2022-11-28T21:33:11.635Z,6.91
2022-11-28T21:35:39.270Z,6.83
2022-11-28T21:38:07.008Z,6.72
2022-11-28T21:40:33.867Z,6.65
2022-11-28T21:43:00.516Z,6.55
2022-11-28T21:45:27.622Z,6.48
2022-11-28T21:47:54.224Z,6.39
2022-11-28T21:50:20.769Z,6.29
2022-11-28T21:52:47.265Z,6.15
2022-11-28T21:55:13.751Z,6.00
2022-11-28T21:57:42.270Z,5.92
2022-11-28T22:00:20.747Z,5.84
2022-11-28T22:03:32.235Z,5.75
2022-11-28T22:05:43.340Z,5.71
2022-11-28T22:08:10.808Z,5.68
2022-11-28T22:10:37.818Z,5.65
2022-11-28T22:13:04.358Z,5.53
2022-11-28T22:15:30.869Z,5.40
2022-11-28T22:17:57.330Z,5.37
2022-11-28T22:20:23.878Z,5.34
2022-11-28T22:22:50.354Z,5.25
2022-11-28T22:25:17.022Z,5.14
2022-11-28T22:27:43.630Z,5.03
2022-11-28T22:30:10.609Z,4.94
2022-11-28T22:32:37.097Z,4.86
2022-11-28T22:35:03.818Z,4.78
2022-11-28T22:37:30.397Z,4.72
2022-11-28T22:39:56.901Z,4.65
2022-11-28T22:42:23.417Z,4.68
2022-11-28T22:44:49.927Z,4.70
2022-11-28T22:47:16.419Z,4.68
2022-11-28T22:49:42.934Z,4.70
2022-11-28T22:52:09.441Z,4.76
2022-11-28T22:54:35.992Z,4.82
2022-11-28T22:57:02.560Z,4.84
2022-11-28T22:59:30.173Z,4.81
2022-11-28T23:01:56.889Z,4.84
2022-11-28T23:04:23.525Z,4.86
2022-11-28T23:06:50.104Z,4.80
2022-11-28T23:09:16.855Z,4.79
2022-11-28T23:11:43.566Z,4.79
2022-11-28T23:14:13.244Z,4.80
2022-11-28T23:16:41.897Z,4.80
2022-11-28T23:19:12.488Z,4.68
2022-11-28T23:21:41.077Z,4.66
2022-11-28T23:24:11.944Z,4.56
2022-11-28T23:26:38.510Z,4.45
2022-11-28T23:29:05.777Z,4.33
2022-11-28T23:31:34.112Z,4.26
2022-11-28T23:34:01.283Z,4.22
2022-11-28T23:36:41.870Z,4.18
2022-11-28T23:39:22.589Z,4.17
2022-11-28T23:41:50.087Z,4.14
2022-11-28T23:44:18.263Z,4.11
2022-11-28T23:46:45.380Z,4.07
2022-11-28T23:49:12.646Z,4.00
2022-11-28T23:51:40.604Z,3.91
2022-11-28T23:54:08.515Z,3.82
2022-11-28T23:56:36.513Z,3.70
2022-11-28T23:59:06.052Z,3.54
